Pagina principală
METAR-TAF:

METAR-TAF

Aeroporturi :

San Andrés, Columbia

Latitudine: 12-35N, longitudine: 081-43W, elevație: 1 m

Observații meteo curente

Raportul a fost făcut în urmă cu 26 de minute, la 04:00 UTC
Vânt 13 kt de la Nord-est
Temperatură 28°C
Umiditate 79%
Presiune 1014 hPa
Vizibilitate de 10 km sau mai mult
Nori împrăștiați la o înălțime de 1700 picior

METAR: SKSP 290400Z 05013KT 9999 SCT017 28/24 Q1014

Ora: 23:26 (04:26 UTC)

Prognoză

Raportul a fost făcut în urmă cu 5 ore și 56 de minute, la 22:30 UTC
Prognoză valabilă de la 29 ora 00 UTC la 29 ora 24 UTC
Vânt 12 kt de la Est/Nord-est
Vizibilitate de 10 km sau mai mult
Nori puțini la o înălțime de 1800 picior

TAF: SKSP 282230Z 2900/2924 06012KT 9999 FEW018 TX31/2919Z TN26/2910Z

Observații și prognoze meteo pentru peste 4.000 de aeroporturi (rapoarte METAR și TAF).

Stațiile disponibile sunt reprezentate pe hartă prin puncte galbene și roșii.

Țineți indicatorul mouse-ului pe punctul dorit pentru a vedea denumirea stației.

Apoi, faceți clic pentru a vedea observațiile și prognozele meteorologice.

Pentru a schimba harta: Pentru mărire, faceți clic pe butoanele verzi cu cruce neagră; pentru micșorare, pe butonul verde cu o liniuță; pentru hărți învecinate, pe săgețile verzi.


METAR-TAF: